createdAt,value
2022-09-05T00:03:14.146Z,9.43
2022-09-05T00:06:17.091Z,9.00
2022-09-05T00:09:18.688Z,8.70
2022-09-05T00:12:22.781Z,9.20
2022-09-05T00:15:52.093Z,9.80
2022-09-05T00:24:18.659Z,8.35
2022-09-05T00:24:29.218Z,7.88
2022-09-05T00:26:49.947Z,9.20
2022-09-05T00:31:45.630Z,8.70
2022-09-05T00:34:15.650Z,9.02
2022-09-05T00:37:48.945Z,8.90
2022-09-05T00:41:02.302Z,8.73
2022-09-05T00:44:06.391Z,9.10
2022-09-05T00:47:17.992Z,9.30
2022-09-05T00:50:44.436Z,7.30
2022-09-05T00:54:04.308Z,8.60
2022-09-05T00:57:31.473Z,9.35
2022-09-05T01:00:33.091Z,9.43
2022-09-05T01:03:34.692Z,7.97
2022-09-05T01:07:03.481Z,8.85
2022-09-05T01:10:15.073Z,10.88
2022-09-05T01:13:35.957Z,8.82
2022-09-05T01:17:08.705Z,9.10
2022-09-05T01:20:19.654Z,8.75
2022-09-05T01:23:40.879Z,9.73
2022-09-05T01:26:45.489Z,8.65
2022-09-05T01:29:53.397Z,8.25
2022-09-05T01:33:07.667Z,10.33
2022-09-05T01:36:31.746Z,9.80
2022-09-05T01:40:15.069Z,9.88
2022-09-05T01:43:25.795Z,8.00
2022-09-05T01:46:44.445Z,11.75
2022-09-05T01:49:49.494Z,8.87
2022-09-05T01:53:11.244Z,9.75
2022-09-05T01:56:26.761Z,8.27
2022-09-05T01:59:45.916Z,8.10
2022-09-05T02:03:19.418Z,9.93
2022-09-05T02:07:20.106Z,8.80
2022-09-05T02:10:38.632Z,8.55
2022-09-05T02:13:40.461Z,9.88
2022-09-05T02:16:44.621Z,8.63
2022-09-05T02:20:25.269Z,8.30
2022-09-05T02:23:57.067Z,8.88
2022-09-05T02:27:28.276Z,8.57
2022-09-05T02:30:49.337Z,8.35
2022-09-05T02:34:13.008Z,8.17
2022-09-05T02:37:43.834Z,7.63
2022-09-05T02:45:06.290Z,9.18
2022-09-05T02:45:10.985Z,8.43
2022-09-05T02:48:06.962Z,8.25
2022-09-05T02:57:25.983Z,9.23
2022-09-05T02:57:42.484Z,10.25
2022-09-05T02:59:08.545Z,10.52
2022-09-05T03:02:27.134Z,8.90
2022-09-05T03:05:38.376Z,11.03
2022-09-05T03:08:43.063Z,10.10
2022-09-05T03:12:29.316Z,8.60
2022-09-05T03:16:12.083Z,8.90
2022-09-05T03:19:46.047Z,9.27
2022-09-05T03:23:13.149Z,8.73
2022-09-05T03:26:33.035Z,9.48
2022-09-05T03:29:34.689Z,8.80
2022-09-05T03:32:48.961Z,8.45
2022-09-05T03:36:11.891Z,8.38
2022-09-05T03:39:32.475Z,8.43
2022-09-05T03:43:09.632Z,9.25
2022-09-05T03:46:42.087Z,8.88
2022-09-05T03:56:36.897Z,8.82
2022-09-05T03:57:14.938Z,8.77
2022-09-05T03:57:43.448Z,9.13
2022-09-05T04:01:17.560Z,12.05
2022-09-05T04:08:14.410Z,9.00
2022-09-05T04:08:15.798Z,8.87
2022-09-05T04:11:32.067Z,10.02
2022-09-05T04:14:55.882Z,9.30
2022-09-05T04:18:04.011Z,8.98
2022-09-05T04:21:15.279Z,8.77
2022-09-05T04:24:36.771Z,11.18
2022-09-05T04:27:54.054Z,9.07
2022-09-05T04:31:04.916Z,10.07
2022-09-05T04:34:09.635Z,9.35
2022-09-05T04:37:30.458Z,8.73
2022-09-05T04:41:04.533Z,9.60
2022-09-05T04:44:16.415Z,9.82
2022-09-05T04:47:23.633Z,10.73
2022-09-05T04:50:37.621Z,10.87
2022-09-05T04:53:59.893Z,9.52
2022-09-05T04:57:14.308Z,9.23
2022-09-05T05:06:02.543Z,10.65
2022-09-05T05:06:09.238Z,10.20
2022-09-05T05:07:34.099Z,9.55
2022-09-05T05:13:30.685Z,10.25
2022-09-05T05:18:14.835Z,10.50
2022-09-05T05:18:15.778Z,11.57
2022-09-05T05:21:21.046Z,11.50
2022-09-05T05:24:35.740Z,10.00
2022-09-05T05:27:46.884Z,10.35
2022-09-05T05:30:48.785Z,10.38
2022-09-05T05:33:56.194Z,10.50
2022-09-05T05:37:24.439Z,11.60
2022-09-05T05:40:31.621Z,11.43
2022-09-05T05:43:46.548Z,12.35
2022-09-05T05:47:03.581Z,10.93
2022-09-05T05:50:26.953Z,10.55
2022-09-05T05:53:55.337Z,11.55
2022-09-05T05:57:19.750Z,11.73
2022-09-05T06:00:40.653Z,12.88
2022-09-05T06:04:05.471Z,12.15
2022-09-05T06:07:19.160Z,14.13
2022-09-05T06:14:50.624Z,16.10
2022-09-05T06:15:33.928Z,15.93
2022-09-05T06:18:45.672Z,15.85
2022-09-05T06:22:09.279Z,14.32
2022-09-05T06:25:41.132Z,16.27
2022-09-05T06:28:45.846Z,16.93
2022-09-05T06:31:56.568Z,14.18
2022-09-05T06:35:17.043Z,14.45
2022-09-05T06:38:33.858Z,15.98
2022-09-05T06:42:33.375Z,16.15
2022-09-05T06:45:58.841Z,14.57
2022-09-05T06:49:30.091Z,14.32
2022-09-05T06:52:42.036Z,14.52
2022-09-05T06:56:02.421Z,13.65
2022-09-05T06:59:30.122Z,14.63
2022-09-05T07:03:00.221Z,15.37
2022-09-05T07:06:19.848Z,14.70
2022-09-05T07:09:52.055Z,15.73
2022-09-05T07:13:19.735Z,12.18
2022-09-05T07:16:38.521Z,15.57
2022-09-05T07:20:02.232Z,14.07
2022-09-05T07:24:05.685Z,13.48
2022-09-05T07:26:54.620Z,12.00
2022-09-05T07:30:01.738Z,12.80
2022-09-05T07:33:04.741Z,12.30
2022-09-05T07:36:14.864Z,15.43
2022-09-05T07:39:28.845Z,13.13
2022-09-05T07:42:38.177Z,12.32
2022-09-05T07:45:55.419Z,13.10
2022-09-05T07:49:05.830Z,10.90
2022-09-05T07:56:56.894Z,11.57
2022-09-05T07:57:09.947Z,10.82
2022-09-05T07:59:08.587Z,11.90
2022-09-05T08:02:12.883Z,11.75
2022-09-05T08:05:26.049Z,10.43
2022-09-05T08:09:21.882Z,9.90
2022-09-05T08:13:23.044Z,9.00
2022-09-05T08:16:13.318Z,9.02
2022-09-05T08:19:54.706Z,8.65
2022-09-05T08:23:34.563Z,7.78
2022-09-05T08:26:56.982Z,13.63
2022-09-05T08:30:26.527Z,7.47
2022-09-05T08:33:36.505Z,9.77
2022-09-05T08:36:41.316Z,8.93
2022-09-05T08:39:45.188Z,7.07
2022-09-05T08:46:23.474Z,8.60
2022-09-05T08:46:49.261Z,7.82
2022-09-05T08:49:54.845Z,7.00
2022-09-05T08:53:18.665Z,6.53
2022-09-05T08:56:37.544Z,7.53
2022-09-05T09:00:18.688Z,7.13
2022-09-05T09:03:35.958Z,7.15
2022-09-05T09:07:47.285Z,9.27
2022-09-05T09:10:57.741Z,6.53
2022-09-05T09:14:31.183Z,6.78
2022-09-05T09:17:43.040Z,6.80
2022-09-05T09:20:54.178Z,6.78
2022-09-05T09:24:31.053Z,7.63
2022-09-05T09:28:46.547Z,7.20
2022-09-05T09:31:33.260Z,6.88
2022-09-05T09:35:06.194Z,7.30
2022-09-05T09:38:19.687Z,6.20
2022-09-05T09:41:45.284Z,5.43
2022-09-05T09:45:28.743Z,5.93
2022-09-05T09:48:37.875Z,7.07
2022-09-05T09:52:02.410Z,6.57
2022-09-05T09:55:40.923Z,5.70
2022-09-05T09:58:56.682Z,7.40
2022-09-05T10:03:15.517Z,5.70
2022-09-05T10:10:53.341Z,6.20
2022-09-05T10:10:54.666Z,6.95
2022-09-05T10:13:25.725Z,5.70
2022-09-05T10:16:47.540Z,6.20
2022-09-05T10:20:29.336Z,5.63
2022-09-05T10:23:49.704Z,5.75
2022-09-05T10:27:13.647Z,5.40
2022-09-05T10:30:33.403Z,5.72
2022-09-05T10:35:12.866Z,5.80
2022-09-05T10:37:21.906Z,6.05
2022-09-05T10:40:27.336Z,6.75
2022-09-05T10:43:34.015Z,7.87
2022-09-05T10:46:57.527Z,7.50
2022-09-05T10:50:08.406Z,5.65
2022-09-05T10:53:41.556Z,6.20
2022-09-05T10:56:50.522Z,7.15
2022-09-05T11:02:16.131Z,6.83
2022-09-05T11:04:11.423Z,5.60
2022-09-05T11:07:55.013Z,7.32
2022-09-05T11:11:26.045Z,6.90
2022-09-05T11:14:57.177Z,7.78
2022-09-05T11:18:05.630Z,6.90
2022-09-05T11:21:09.692Z,5.35
2022-09-05T11:24:30.083Z,6.47
2022-09-05T11:27:43.708Z,5.95
2022-09-05T11:30:53.404Z,5.80
2022-09-05T11:39:51.262Z,6.07
2022-09-05T11:40:02.337Z,7.47
2022-09-05T11:41:32.777Z,7.00
2022-09-05T11:44:45.090Z,5.63
2022-09-05T11:48:07.541Z,5.70
2022-09-05T11:51:47.513Z,6.40
2022-09-05T11:55:20.603Z,6.25
2022-09-05T11:58:44.775Z,6.75
2022-09-05T12:02:24.213Z,5.13
2022-09-05T12:05:58.786Z,5.95
2022-09-05T12:09:26.952Z,5.70
2022-09-05T12:12:42.020Z,5.40
2022-09-05T12:15:52.059Z,7.10
2022-09-05T12:19:19.245Z,6.65
2022-09-05T12:22:39.077Z,5.60
2022-09-05T12:27:42.467Z,6.87
2022-09-05T12:29:29.662Z,6.68
2022-09-05T12:36:05.860Z,6.63
2022-09-05T12:40:53.380Z,7.85
2022-09-05T12:41:34.145Z,5.88
2022-09-05T12:44:38.434Z,7.43
2022-09-05T12:47:21.091Z,6.50
2022-09-05T12:50:38.028Z,6.38
2022-09-05T12:53:50.262Z,6.20
2022-09-05T12:59:56.705Z,6.15
2022-09-05T13:03:01.346Z,6.37
2022-09-05T13:04:18.459Z,6.38
2022-09-05T13:07:27.686Z,6.15
2022-09-05T13:13:48.581Z,6.82
2022-09-05T13:14:56.314Z,5.78
2022-09-05T13:17:43.012Z,5.37
2022-09-05T13:21:10.662Z,5.57
2022-09-05T13:24:24.150Z,6.95
2022-09-05T13:27:33.368Z,6.95
2022-09-05T13:37:56.358Z,6.20
2022-09-05T13:38:06.159Z,5.63
2022-09-05T13:38:30.808Z,5.90
2022-09-05T13:41:26.842Z,6.20
2022-09-05T13:44:37.127Z,7.68
2022-09-05T13:47:41.732Z,5.65
2022-09-05T13:50:52.878Z,6.10
2022-09-05T13:54:05.465Z,5.35
2022-09-05T13:57:36.502Z,5.55
2022-09-05T14:00:38.614Z,7.70
2022-09-05T14:03:50.433Z,5.82
2022-09-05T14:10:43.581Z,5.65
2022-09-05T14:14:02.244Z,5.53
2022-09-05T14:21:08.696Z,7.57
2022-09-05T14:24:27.787Z,5.30
2022-09-05T14:27:32.730Z,5.50
2022-09-05T14:33:11.046Z,6.85
2022-09-05T14:37:43.765Z,5.70
2022-09-05T14:38:39.029Z,6.75
2022-09-05T14:42:09.569Z,5.53
2022-09-05T14:45:15.569Z,5.85
2022-09-05T14:48:35.614Z,6.30
2022-09-05T14:51:39.178Z,4.75
2022-09-05T15:02:41.740Z,5.17
2022-09-05T15:02:48.794Z,5.85
2022-09-05T15:05:11.178Z,5.18
2022-09-05T15:08:52.568Z,6.28
2022-09-05T15:12:23.055Z,5.88
2022-09-05T15:15:03.533Z,5.93
2022-09-05T15:18:39.261Z,5.50
2022-09-05T15:21:43.368Z,7.63
2022-09-05T15:24:59.351Z,5.18
2022-09-05T15:28:30.149Z,5.57
2022-09-05T15:31:31.777Z,5.57
2022-09-05T15:34:33.431Z,6.57
2022-09-05T15:37:41.076Z,5.88
2022-09-05T15:40:43.288Z,6.22
2022-09-05T15:43:58.232Z,5.90
2022-09-05T15:47:03.529Z,5.13
2022-09-05T15:50:19.004Z,6.05
2022-09-05T15:53:30.828Z,6.20
2022-09-05T15:56:36.829Z,6.95
2022-09-05T15:59:47.287Z,6.60
2022-09-05T16:03:03.940Z,5.60
2022-09-05T16:10:43.606Z,7.40
2022-09-05T16:10:50.569Z,7.70
2022-09-05T16:12:58.855Z,6.22
2022-09-05T16:21:35.649Z,5.68
2022-09-05T16:23:32.026Z,7.53
2022-09-05T16:23:41.832Z,31.35
2022-09-05T16:26:48.356Z,10.45
2022-09-05T16:29:51.705Z,5.68
2022-09-05T16:32:59.597Z,6.40
2022-09-05T16:36:19.594Z,7.63
2022-09-05T16:39:25.155Z,7.60
2022-09-05T16:42:47.092Z,7.32
2022-09-05T16:46:16.784Z,7.25
2022-09-05T16:49:43.179Z,7.80
2022-09-05T16:52:53.176Z,6.13
2022-09-05T16:56:18.118Z,5.88
2022-09-05T16:59:23.064Z,5.68
2022-09-05T17:02:36.727Z,6.20
2022-09-05T17:05:48.319Z,7.63
2022-09-05T17:08:52.575Z,7.67
2022-09-05T17:12:02.195Z,5.97
2022-09-05T17:15:38.188Z,9.65
2022-09-05T17:18:59.494Z,8.20
2022-09-05T17:27:55.454Z,7.20
2022-09-05T17:29:32.368Z,6.27
2022-09-05T17:32:55.708Z,7.50
2022-09-05T17:36:06.698Z,9.43
2022-09-05T17:39:44.457Z,7.25
2022-09-05T17:43:01.009Z,8.17
2022-09-05T17:46:16.260Z,8.13
2022-09-05T17:49:43.294Z,6.63
2022-09-05T17:53:26.759Z,7.13
2022-09-05T17:56:38.141Z,7.10
2022-09-05T17:59:39.838Z,7.13
2022-09-05T18:02:56.856Z,7.72
2022-09-05T18:06:04.536Z,7.78
2022-09-05T18:09:09.301Z,7.53
2022-09-05T18:13:11.645Z,7.63
2022-09-05T18:16:11.504Z,7.20
2022-09-05T18:22:40.755Z,7.88
2022-09-05T18:25:55.030Z,7.35
2022-09-05T18:29:14.921Z,7.93
2022-09-05T18:32:38.494Z,9.70
2022-09-05T18:35:48.018Z,7.55
2022-09-05T18:39:24.886Z,7.90
2022-09-05T18:42:33.872Z,7.22
2022-09-05T18:45:38.113Z,7.80
2022-09-05T18:50:26.848Z,9.57
2022-09-05T18:52:44.462Z,6.95
2022-09-05T18:56:14.054Z,8.93
2022-09-05T18:59:30.586Z,8.93
2022-09-05T19:02:59.065Z,9.43
2022-09-05T19:06:36.556Z,8.80
2022-09-05T19:09:36.349Z,8.77
2022-09-05T19:12:47.988Z,8.52
2022-09-05T19:16:33.136Z,8.45
2022-09-05T19:20:33.220Z,9.00
2022-09-05T19:23:53.640Z,8.90
2022-09-05T19:27:39.599Z,9.38
2022-09-05T19:36:59.028Z,8.68
2022-09-05T19:37:05.768Z,11.38
2022-09-05T19:37:29.164Z,10.82
2022-09-05T19:47:10.998Z,8.73
2022-09-05T19:47:50.278Z,9.93
2022-09-05T19:48:04.064Z,9.77
2022-09-05T19:51:17.235Z,10.23
2022-09-05T19:54:35.299Z,9.52
2022-09-05T19:57:37.495Z,9.03
2022-09-05T20:00:41.328Z,8.68
2022-09-05T20:03:48.459Z,11.30
2022-09-05T20:06:50.470Z,8.35
2022-09-05T20:09:54.145Z,8.23
2022-09-05T20:12:56.860Z,8.47
2022-09-05T20:16:01.853Z,7.93
2022-09-05T20:19:06.679Z,10.20
2022-09-05T20:22:47.913Z,8.48
2022-09-05T20:25:40.763Z,9.27
2022-09-05T20:28:45.560Z,8.83
2022-09-05T20:31:47.450Z,8.05
2022-09-05T20:36:31.330Z,7.40
2022-09-05T20:43:24.586Z,9.05
2022-09-05T20:43:27.682Z,9.88
2022-09-05T20:45:11.155Z,9.67
2022-09-05T20:54:13.918Z,8.60
2022-09-05T20:54:20.536Z,8.50
2022-09-05T20:55:37.768Z,8.10
2022-09-05T20:58:38.751Z,8.27
2022-09-05T21:01:42.748Z,7.30
2022-09-05T21:05:19.842Z,7.40
2022-09-05T21:08:34.621Z,7.70
2022-09-05T21:11:36.386Z,8.18
2022-09-05T21:14:38.119Z,8.90
2022-09-05T21:17:39.889Z,9.57
2022-09-05T21:20:52.101Z,7.50
2022-09-05T21:24:16.226Z,8.30
2022-09-05T21:27:25.221Z,7.63
2022-09-05T21:30:31.140Z,7.85
2022-09-05T21:33:45.950Z,8.10
2022-09-05T21:36:49.911Z,8.18
2022-09-05T21:40:06.069Z,9.77
2022-09-05T21:47:32.970Z,9.35
2022-09-05T21:47:47.918Z,8.85
2022-09-05T21:49:55.088Z,7.37
2022-09-05T21:53:37.937Z,7.85
2022-09-05T21:59:20.005Z,7.78
2022-09-05T21:59:52.593Z,8.27
2022-09-05T22:02:54.894Z,8.90
2022-09-05T22:05:56.700Z,13.27
2022-09-05T22:09:13.879Z,13.48
2022-09-05T22:12:30.699Z,10.35
2022-09-05T22:15:32.672Z,9.38
2022-09-05T22:18:38.817Z,9.55
2022-09-05T22:21:40.654Z,9.03
2022-09-05T22:24:46.828Z,8.52
2022-09-05T22:27:50.154Z,9.80
2022-09-05T22:30:52.267Z,10.50
2022-09-05T22:33:54.069Z,9.50
2022-09-05T22:36:56.161Z,9.17
2022-09-05T22:39:57.913Z,9.60
2022-09-05T22:43:02.187Z,8.98
2022-09-05T22:46:04.310Z,10.40
2022-09-05T22:49:06.048Z,8.10
2022-09-05T22:52:10.076Z,8.87
2022-09-05T22:55:12.023Z,9.68
2022-09-05T22:58:14.973Z,8.98
2022-09-05T23:01:16.744Z,11.27
2022-09-05T23:04:18.549Z,9.93
2022-09-05T23:07:20.986Z,9.23
2022-09-05T23:10:22.613Z,9.00
2022-09-05T23:13:26.930Z,10.32
2022-09-05T23:16:28.775Z,10.32
2022-09-05T23:19:30.973Z,10.40
2022-09-05T23:22:36.012Z,8.80
2022-09-05T23:25:37.686Z,9.65
2022-09-05T23:28:43.106Z,10.60
2022-09-05T23:31:45.243Z,9.05
2022-09-05T23:34:46.912Z,10.10
2022-09-05T23:37:48.930Z,10.00
2022-09-05T23:40:50.562Z,8.38
2022-09-05T23:43:52.301Z,10.27
2022-09-05T23:46:53.948Z,11.70
2022-09-05T23:49:58.101Z,10.10
2022-09-05T23:53:03.732Z,12.80
2022-09-05T23:56:07.361Z,13.98
2022-09-05T23:59:09.126Z,11.73
